Time;durP1;ratioP1;P1;durP2;ratioP2;P2;SDS_P1;SDS_P2;PMS_P1;PMS_P2;Temp;Humidity;BMP_temperature;BMP_pressure;BME280_temperature;BME280_humidity;BME280_pressure;Samples;Min_cycle;Max_cycle;Signal;HPM_P1;HPM_P2
2022/08/21 00:01:30;;;;;;;;;5.67;2.67;;;;;22.58;45.71;101232.28;5084691;27;45920;-66
2022/08/21 00:03:55;;;;;;;;;6.67;4.00;;;;;22.67;45.83;101246.66;5090116;27;45214;-65
2022/08/21 00:06:22;;;;;;;;;6.67;5.00;;;;;22.54;45.98;101219.66;5092098;27;45428;-66
2022/08/21 00:08:47;;;;;;;;;5.00;5.00;;;;;22.65;45.84;101235.78;5086881;27;45209;-66
2022/08/21 00:11:14;;;;;;;;;3.00;3.00;;;;;22.49;45.81;101217.91;5072887;28;45741;-66
2022/08/21 00:13:39;;;;;;;;;10.67;5.00;;;;;22.60;46.13;101234.97;5088235;27;45457;-67
2022/08/21 00:16:05;;;;;;;;;4.00;2.33;;;;;22.46;46.53;101210.69;5087205;27;45048;-67
2022/08/21 00:18:30;;;;;;;;;5.33;3.00;;;;;22.48;46.69;101232.47;5082431;27;45626;-66
2022/08/21 00:20:56;;;;;;;;;4.00;4.00;;;;;22.43;46.58;101233.41;5089446;28;46003;-67
2022/08/21 00:23:22;;;;;;;;;5.00;3.00;;;;;22.43;46.83;101229.78;5089460;28;45204;-65
2022/08/21 00:25:47;;;;;;;;;2.00;2.00;;;;;22.38;46.94;101228.97;5084570;27;45035;-66
2022/08/21 00:28:13;;;;;;;;;5.33;4.67;;;;;22.38;46.88;101232.59;5084320;27;45442;-65
2022/08/21 00:30:40;;;;;;;;;2.33;2.33;;;;;22.36;47.06;101234.44;5086663;28;45664;-65
2022/08/21 00:33:06;;;;;;;;;2.67;2.67;;;;;22.32;46.93;101227.22;5090975;27;45188;-66
2022/08/21 00:35:35;;;;;;;;;2.00;2.00;;;;;22.37;47.12;101225.34;5090466;28;45332;-67
2022/08/21 00:38:01;;;;;;;;;2.67;2.00;;;;;22.37;46.96;101227.16;5072911;28;45521;-66
2022/08/21 00:40:34;;;;;;;;;3.00;3.00;;;;;22.35;47.13;101229.00;5088517;27;45311;-66
2022/08/21 00:43:01;;;;;;;;;2.67;1.67;;;;;22.24;47.31;101211.00;5086576;28;45036;-65
2022/08/21 00:45:27;;;;;;;;;1.00;1.00;;;;;22.36;47.09;101233.53;5086766;27;45148;-66
2022/08/21 00:47:54;;;;;;;;;2.33;2.33;;;;;22.37;47.14;101233.53;5084761;27;45169;-66
2022/08/21 00:50:20;;;;;;;;;2.00;2.00;;;;;22.10;47.16;101188.50;5078350;28;45168;-65
2022/08/21 00:52:46;;;;;;;;;2.33;2.33;;;;;22.39;47.20;101236.19;5086361;28;45096;-66
2022/08/21 00:55:13;;;;;;;;;8.33;2.00;;;;;22.28;47.18;101203.66;5083794;27;45558;-65
2022/08/21 00:57:50;;;;;;;;;2.00;2.00;;;;;22.39;47.13;101214.41;5080069;28;45267;-66
2022/08/21 01:00:22;;;;;;;;;4.00;2.67;;;;;22.34;47.32;101208.16;5082220;27;45769;-66
2022/08/21 01:02:48;;;;;;;;;2.67;1.00;;;;;22.34;47.32;101225.41;5087278;27;45082;-66
2022/08/21 01:05:14;;;;;;;;;3.00;1.33;;;;;22.32;47.22;101218.16;5094687;27;45107;-66
2022/08/21 01:07:40;;;;;;;;;2.00;2.00;;;;;22.32;47.37;101216.31;5082258;28;45514;-65
2022/08/21 01:10:06;;;;;;;;;1.00;0.00;;;;;22.22;47.55;101218.28;5082599;27;45383;-65
2022/08/21 01:12:33;;;;;;;;;2.00;2.00;;;;;22.09;47.79;101206.66;5091895;28;45000;-67
2022/08/21 01:15:01;;;;;;;;;5.00;3.33;;;;;21.93;47.76;101198.72;5094844;28;44964;-66
2022/08/21 01:17:27;;;;;;;;;2.00;2.00;;;;;22.12;47.95;101221.16;5083944;28;45277;-65
2022/08/21 01:19:57;;;;;;;;;2.33;2.00;;;;;22.05;48.01;101206.72;5089046;28;45875;-65
2022/08/21 01:22:22;;;;;;;;;2.00;2.00;;;;;22.09;47.94;101220.28;5088901;27;44930;-66
2022/08/21 01:24:47;;;;;;;;;3.00;3.00;;;;;21.94;47.94;101200.53;5095254;28;45174;-65
2022/08/21 01:27:13;;;;;;;;;3.33;1.00;;;;;22.02;47.96;101209.47;5092100;28;46411;-65
2022/08/21 01:29:48;;;;;;;;;1.67;1.67;;;;;22.10;47.92;101226.59;5091799;28;45663;-66
2022/08/21 01:32:17;;;;;;;;;3.33;3.33;;;;;22.11;47.85;101231.13;5087135;27;45186;-66
2022/08/21 01:34:44;;;;;;;;;3.00;3.00;;;;;22.11;48.06;101228.41;5087213;28;45118;-65
2022/08/21 01:37:10;;;;;;;;;2.67;1.00;;;;;21.96;48.11;101213.19;5085399;27;45284;-65
2022/08/21 01:39:36;;;;;;;;;2.00;1.33;;;;;22.02;48.03;101228.53;5093425;27;45183;-66
2022/08/21 01:42:03;;;;;;;;;2.00;2.00;;;;;21.93;48.29;101215.03;5093482;27;45278;-66
2022/08/21 01:44:29;;;;;;;;;1.33;1.33;;;;;22.02;48.22;101231.25;5077139;28;45312;-66
2022/08/21 01:46:55;;;;;;;;;3.00;3.00;;;;;22.04;48.33;101235.75;5088040;28;45092;-66
2022/08/21 01:49:21;;;;;;;;;1.67;1.00;;;;;22.04;48.17;101232.13;5076120;28;45911;-66
2022/08/21 01:51:46;;;;;;;;;3.33;2.00;;;;;22.02;48.21;101237.56;5087462;27;45611;-66
2022/08/21 01:54:11;;;;;;;;;5.00;1.33;;;;;22.01;48.17;101235.81;5085540;27;47199;-65
2022/08/21 01:56:49;;;;;;;;;2.67;2.67;;;;;22.00;48.30;101230.38;5071458;27;46187;-65
2022/08/21 01:59:15;;;;;;;;;2.00;2.00;;;;;21.93;48.32;101225.91;5088868;28;45753;-65
2022/08/21 02:01:41;;;;;;;;;1.67;1.67;;;;;21.96;48.92;101234.97;5082480;28;44945;-65
2022/08/21 02:04:09;;;;;;;;;4.33;2.00;;;;;21.93;48.62;101224.13;5080341;28;45329;-65
2022/08/21 02:06:35;;;;;;;;;4.00;2.00;;;;;21.79;48.46;101193.47;5093681;27;45063;-66
2022/08/21 02:09:04;;;;;;;;;3.00;3.00;;;;;21.95;48.56;101225.00;5087209;27;45268;-66
2022/08/21 02:11:31;;;;;;;;;4.33;2.00;;;;;21.94;48.58;101225.91;5085032;28;45434;-66
2022/08/21 02:13:57;;;;;;;;;2.67;2.00;;;;;21.74;48.62;101185.34;5085398;28;45193;-65
2022/08/21 02:16:22;;;;;;;;;3.00;2.00;;;;;21.87;48.75;101202.44;5090252;28;45097;-65
2022/08/21 02:18:47;;;;;;;;;2.00;2.00;;;;;21.75;48.76;101183.56;5088616;27;61885;-66
2022/08/21 02:21:13;;;;;;;;;2.00;2.00;;;;;21.93;48.71;101215.03;5095340;27;45171;-66
2022/08/21 02:23:38;;;;;;;;;4.00;4.00;;;;;21.88;48.52;101205.13;5081470;27;49848;-65
2022/08/21 02:26:06;;;;;;;;;3.00;1.00;;;;;21.88;48.51;101213.28;5092324;27;45205;-67
2022/08/21 02:28:32;;;;;;;;;4.67;3.00;;;;;21.71;48.92;101186.31;5083915;27;46817;-66
2022/08/21 02:30:57;;;;;;;;;3.33;2.33;;;;;21.88;48.74;101210.56;5080780;28;45440;-65
2022/08/21 02:33:24;;;;;;;;;5.67;2.00;;;;;21.85;48.91;101197.00;5087202;27;45402;-65
2022/08/21 02:35:50;;;;;;;;;1.33;1.33;;;;;21.90;48.99;101207.84;5082092;27;45337;-66
2022/08/21 02:38:19;;;;;;;;;2.00;2.00;;;;;21.89;48.95;101206.00;5088525;28;45457;-66
2022/08/21 02:40:48;;;;;;;;;1.00;1.00;;;;;21.88;48.66;101207.84;5091386;27;44941;-65
2022/08/21 02:43:15;;;;;;;;;4.33;2.33;;;;;21.81;48.73;101202.50;5082047;28;44939;-66
2022/08/21 02:45:40;;;;;;;;;3.67;3.00;;;;;21.86;48.83;101208.78;5093192;27;45289;-65
2022/08/21 02:48:09;;;;;;;;;3.33;2.00;;;;;21.69;48.59;101174.53;5089582;27;45408;-65
2022/08/21 02:50:38;;;;;;;;;5.67;3.00;;;;;21.85;48.82;101205.16;5073236;28;45528;-66
2022/08/21 02:53:05;;;;;;;;;2.00;2.00;;;;;21.84;48.75;101210.63;5081680;28;45475;-64
2022/08/21 02:55:32;;;;;;;;;4.00;4.00;;;;;21.80;48.94;101208.88;5076024;27;45285;-65
2022/08/21 02:57:58;;;;;;;;;2.00;2.00;;;;;21.72;48.93;101198.09;5079581;27;45809;-66
2022/08/21 03:00:26;;;;;;;;;6.00;3.00;;;;;21.81;48.68;101208.88;5078501;27;45921;-65
2022/08/21 03:02:53;;;;;;;;;3.67;3.00;;;;;21.86;48.76;101212.41;5080939;28;45402;-65
2022/08/21 03:05:19;;;;;;;;;2.00;2.00;;;;;21.86;48.69;101215.13;5082233;28;45534;-66
2022/08/21 03:07:46;;;;;;;;;2.00;2.00;;;;;21.86;48.70;101215.13;5090620;28;45411;-65
2022/08/21 03:10:13;;;;;;;;;5.00;3.00;;;;;21.84;48.91;101214.22;5090970;27;45412;-66
2022/08/21 03:12:38;;;;;;;;;5.00;3.00;;;;;21.83;48.77;101223.34;5082716;27;45614;-65
2022/08/21 03:15:07;;;;;;;;;2.33;2.00;;;;;21.56;49.12;101172.88;5087787;27;45404;-65
2022/08/21 03:17:33;;;;;;;;;2.00;2.00;;;;;21.78;49.27;101217.06;5091568;28;45610;-66
2022/08/21 03:19:59;;;;;;;;;1.00;1.00;;;;;21.77;49.13;101207.09;5084542;27;45428;-66
2022/08/21 03:22:26;;;;;;;;;1.33;1.33;;;;;21.61;49.00;101186.44;5086014;27;45487;-65
2022/08/21 03:24:52;;;;;;;;;3.00;3.00;;;;;21.49;49.09;101160.31;5072904;28;45425;-65
2022/08/21 03:27:17;;;;;;;;;2.00;2.00;;;;;21.61;48.74;101181.88;5086882;27;46445;-66
2022/08/21 03:29:42;;;;;;;;;2.67;2.00;;;;;21.67;48.96;101189.09;5075430;27;45388;-65
2022/08/21 03:32:10;;;;;;;;;2.67;2.67;;;;;21.38;49.06;101144.06;5073884;27;45610;-65
2022/08/21 03:34:37;;;;;;;;;4.00;2.33;;;;;21.69;49.03;101200.84;5080288;27;45602;-65
2022/08/21 03:37:06;;;;;;;;;5.00;2.00;;;;;21.58;49.01;101175.59;5088004;27;45992;-65
2022/08/21 03:39:33;;;;;;;;;2.33;1.00;;;;;21.64;48.78;101176.41;5093150;27;45059;-66
2022/08/21 03:41:59;;;;;;;;;3.67;2.00;;;;;21.65;48.92;101177.34;5092402;28;44867;-65
2022/08/21 03:44:26;;;;;;;;;4.00;2.67;;;;;21.49;49.28;101155.75;5089354;28;45051;-66
2022/08/21 03:46:51;;;;;;;;;1.00;1.00;;;;;21.19;49.27;101104.47;5085984;27;45482;-66
2022/08/21 03:49:17;;;;;;;;;4.00;2.00;;;;;21.51;49.27;101163.91;5087207;28;45292;-66
2022/08/21 03:51:42;;;;;;;;;1.33;1.33;;;;;21.37;49.35;101134.13;5086785;27;45059;-67
2022/08/21 03:54:07;;;;;;;;;4.33;1.33;;;;;21.52;49.28;101155.72;5090950;28;45037;-65
2022/08/21 03:56:33;;;;;;;;;4.00;2.33;;;;;21.56;49.32;101174.72;5092498;28;46450;-65
2022/08/21 03:58:58;;;;;;;;;5.00;3.00;;;;;21.52;49.43;101166.59;5087354;28;45383;-65
2022/08/21 04:01:24;;;;;;;;;1.33;1.33;;;;;21.17;49.48;101107.22;5088793;28;45131;-65
2022/08/21 04:03:49;;;;;;;;;4.00;2.00;;;;;21.52;49.46;101166.59;5086431;28;45192;-65
2022/08/21 04:06:15;;;;;;;;;2.00;2.00;;;;;21.53;49.65;101164.75;5083945;28;46436;-65
2022/08/21 04:08:42;;;;;;;;;3.00;2.00;;;;;21.53;49.39;101168.41;5087622;28;44914;-66
2022/08/21 04:11:10;;;;;;;;;4.00;2.33;;;;;21.53;49.59;101164.75;5088774;27;44968;-66
2022/08/21 04:13:35;;;;;;;;;4.00;0.67;;;;;21.45;49.38;101145.81;5092751;27;45360;-65
2022/08/21 04:16:00;;;;;;;;;4.00;1.00;;;;;21.34;49.27;101126.91;5089950;28;45431;-64
2022/08/21 04:18:26;;;;;;;;;2.00;2.00;;;;;21.21;49.36;101110.78;5085248;28;45011;-65
2022/08/21 04:20:53;;;;;;;;;3.00;3.00;;;;;21.50;49.67;101173.00;5084178;28;45219;-66
2022/08/21 04:23:20;;;;;;;;;3.33;2.33;;;;;21.50;49.79;101176.59;5088801;28;45251;-67
2022/08/21 04:25:45;;;;;;;;;2.67;2.67;;;;;21.24;49.63;101136.09;5086369;27;46247;-66
2022/08/21 04:28:10;;;;;;;;;2.00;1.33;;;;;21.22;49.92;101135.22;5085591;27;45326;-65
2022/08/21 04:30:36;;;;;;;;;2.33;1.33;;;;;21.45;49.98;101175.72;5090329;27;56797;-65
2022/08/21 04:33:03;;;;;;;;;3.00;2.33;;;;;21.34;49.74;101169.50;5092026;28;44972;-65
2022/08/21 04:35:29;;;;;;;;;3.67;3.00;;;;;21.46;50.01;101191.09;5090481;28;45110;-66
2022/08/21 04:37:56;;;;;;;;;1.67;1.67;;;;;21.33;49.92;101173.13;5091537;28;44970;-66
2022/08/21 04:40:23;;;;;;;;;4.00;1.00;;;;;21.42;49.99;101186.63;5090086;27;45158;-65
2022/08/21 04:42:53;;;;;;;;;4.67;2.67;;;;;21.45;49.92;101186.59;5086702;28;45448;-65
2022/08/21 04:45:30;;;;;;;;;3.00;3.00;;;;;21.49;49.88;101195.66;5088692;28;45375;-65
2022/08/21 04:47:58;;;;;;;;;3.00;3.00;;;;;21.49;49.83;101199.25;5085305;28;44938;-66
2022/08/21 04:50:50;;;;;;;;;2.67;2.00;;;;;21.49;50.12;101198.38;5089174;28;45002;-65
2022/08/21 04:53:30;;;;;;;;;5.67;3.00;;;;;21.31;50.29;101178.56;5085320;28;45337;-65
2022/08/21 04:56:00;;;;;;;;;2.33;2.00;;;;;21.42;49.93;101194.78;5090277;27;45869;-66
2022/08/21 04:58:27;;;;;;;;;4.33;3.00;;;;;21.27;50.07;101175.94;5088915;28;44999;-64
2022/08/21 05:00:55;;;;;;;;;4.00;3.00;;;;;21.42;50.07;101202.94;5091251;27;45129;-66
2022/08/21 05:03:22;;;;;;;;;2.00;2.00;;;;;20.96;50.00;101133.69;5091256;27;45189;-66
2022/08/21 05:05:48;;;;;;;;;3.00;2.67;;;;;20.91;50.30;101135.53;5079024;27;45560;-66
2022/08/21 05:08:17;;;;;;;;;3.00;2.00;;;;;21.29;50.63;101204.88;5070813;28;45369;-66
2022/08/21 05:10:44;;;;;;;;;1.67;1.67;;;;;21.28;50.47;101200.38;5083525;28;45486;-66
2022/08/21 05:13:12;;;;;;;;;6.33;3.33;;;;;21.23;51.19;101201.34;5089514;27;45228;-66
2022/08/21 05:15:38;;;;;;;;;4.33;3.33;;;;;21.24;51.11;101203.16;5088066;28;45447;-66
2022/08/21 05:18:06;;;;;;;;;7.67;5.33;;;;;21.13;50.85;101166.09;5089230;28;45022;-65
2022/08/21 05:20:34;;;;;;;;;3.00;3.00;;;;;21.23;51.04;101196.78;5090592;27;45075;-66
2022/08/21 05:23:00;;;;;;;;;2.67;2.67;;;;;21.04;51.18;101174.34;5089755;27;45323;-65
2022/08/21 05:25:26;;;;;;;;;2.67;1.67;;;;;21.06;51.24;101198.78;5079381;27;46064;-65
2022/08/21 05:27:52;;;;;;;;;9.33;3.67;;;;;21.11;51.14;101188.78;5082438;28;45229;-66
2022/08/21 05:30:17;;;;;;;;;2.00;2.00;;;;;21.12;51.06;101198.75;5087952;27;45400;-66
2022/08/21 05:32:42;;;;;;;;;2.00;2.00;;;;;21.15;50.69;101202.31;5083682;28;45471;-65
2022/08/21 05:35:08;;;;;;;;;3.67;2.00;;;;;21.16;50.92;101198.66;5087148;27;45104;-66
2022/08/21 05:37:34;;;;;;;;;2.00;2.00;;;;;21.15;50.65;101201.41;5089543;28;45423;-65
2022/08/21 05:40:01;;;;;;;;;4.00;2.33;;;;;20.99;50.72;101181.66;5088854;28;45251;-66
2022/08/21 05:42:27;;;;;;;;;4.00;2.00;;;;;20.96;50.70;101169.00;5081034;28;45268;-66
2022/08/21 05:44:53;;;;;;;;;2.67;2.00;;;;;21.05;50.88;101196.97;5091288;27;45208;-66
2022/08/21 05:47:18;;;;;;;;;3.67;1.00;;;;;21.01;50.96;101197.94;5087534;27;45374;-65
2022/08/21 05:49:43;;;;;;;;;3.33;2.00;;;;;20.94;51.33;101192.56;5088835;28;45357;-65
2022/08/21 05:52:09;;;;;;;;;6.67;6.67;;;;;20.90;51.28;101201.63;5090945;27;45229;-66
2022/08/21 05:54:36;;;;;;;;;3.00;2.00;;;;;20.82;51.31;101181.78;5088413;28;45739;-66
2022/08/21 05:57:02;;;;;;;;;3.00;3.00;;;;;20.77;51.57;101195.44;5092838;27;45237;-65
2022/08/21 05:59:27;;;;;;;;;4.00;2.00;;;;;20.81;51.58;101196.31;5090640;27;45331;-65
2022/08/21 06:01:53;;;;;;;;;5.00;3.00;;;;;20.80;51.40;101184.56;5088630;28;45267;-65
2022/08/21 06:04:18;;;;;;;;;3.00;3.00;;;;;20.97;51.50;101206.13;5091445;28;45880;-66
2022/08/21 06:06:44;;;;;;;;;4.67;3.00;;;;;20.56;51.15;101133.16;5092148;27;45147;-65
2022/08/21 06:09:09;;;;;;;;;5.00;5.00;;;;;20.74;50.73;101151.09;5089994;28;45291;-66
2022/08/21 06:11:34;;;;;;;;;5.67;4.00;;;;;21.10;50.87;101201.47;5089514;27;52040;-65
2022/08/21 06:14:00;;;;;;;;;2.67;1.33;;;;;20.96;50.73;101185.28;5090812;28;45637;-65
2022/08/21 06:16:26;;;;;;;;;4.00;4.00;;;;;20.95;50.93;101174.44;5090140;27;45252;-66
2022/08/21 06:18:52;;;;;;;;;1.00;1.00;;;;;20.88;50.63;101157.31;5087858;28;45158;-67
2022/08/21 06:21:18;;;;;;;;;2.33;2.33;;;;;21.24;50.78;101211.28;5089580;27;45482;-65
2022/08/21 06:23:43;;;;;;;;;5.00;3.33;;;;;21.16;50.30;101187.78;5106322;27;47510;-66
2022/08/21 06:26:11;;;;;;;;;4.00;4.00;;;;;21.13;50.31;101173.34;5092765;28;45139;-65
2022/08/21 06:28:37;;;;;;;;;3.67;2.00;;;;;21.27;50.32;101186.81;5094057;28;45005;-66
2022/08/21 06:31:18;;;;;;;;;2.67;2.67;;;;;21.39;50.09;101199.34;5094227;27;45014;-66
2022/08/21 06:33:43;;;;;;;;;6.00;4.33;;;;;21.47;50.01;101202.88;5091054;27;45270;-66
2022/08/21 06:36:09;;;;;;;;;7.33;3.33;;;;;21.35;50.13;101177.66;5092192;27;45015;-65
2022/08/21 06:38:35;;;;;;;;;4.67;2.33;;;;;21.49;49.69;101190.22;5093834;28;44956;-66
2022/08/21 06:41:01;;;;;;;;;1.67;1.67;;;;;21.16;49.70;101122.59;5091530;27;45047;-65
2022/08/21 06:43:26;;;;;;;;;3.00;3.00;;;;;21.63;49.28;101201.81;5090140;27;46344;-66
2022/08/21 06:45:52;;;;;;;;;2.00;2.00;;;;;21.32;49.74;101152.31;5093047;28;45188;-66
2022/08/21 06:48:17;;;;;;;;;2.00;2.00;;;;;21.56;49.62;101191.03;5093116;28;47414;-67
2022/08/21 06:50:42;;;;;;;;;3.67;2.00;;;;;21.60;49.41;101187.38;5092776;27;45622;-66
2022/08/21 06:53:11;;;;;;;;;2.00;2.00;;;;;21.71;49.36;101186.31;5092107;28;45596;-66
2022/08/21 06:55:38;;;;;;;;;1.33;1.33;;;;;21.82;49.01;101179.84;5089903;28;45348;-66
2022/08/21 06:58:04;;;;;;;;;4.00;3.00;;;;;21.78;49.21;101183.50;5090468;28;45364;-65
2022/08/21 07:00:30;;;;;;;;;6.00;5.00;;;;;21.75;49.09;101189.00;5092148;27;45495;-65
2022/08/21 07:02:55;;;;;;;;;4.67;3.00;;;;;21.63;49.09;101171.91;5092800;27;45131;-65
2022/08/21 07:05:21;;;;;;;;;11.67;4.00;;;;;21.35;49.54;101126.00;5091578;27;45229;-66
2022/08/21 07:07:46;;;;;;;;;3.67;2.00;;;;;21.67;49.14;101168.22;5093362;28;45181;-65
2022/08/21 07:10:13;;;;;;;;;2.00;2.00;;;;;21.88;48.74;101185.19;5088417;27;45002;-65
2022/08/21 07:12:38;;;;;;;;;7.00;4.00;;;;;21.93;48.45;101187.81;5073983;27;46253;-66
2022/08/21 07:15:04;;;;;;;;;3.00;3.00;;;;;21.79;48.48;101169.00;5066960;28;45439;-65
2022/08/21 07:17:30;;;;;;;;;11.33;4.00;;;;;21.94;48.53;101192.38;5072857;27;45367;-64
2022/08/21 07:19:56;;;;;;;;;4.33;3.67;;;;;21.79;48.25;101172.59;5074316;27;48565;-65
2022/08/21 07:22:21;;;;;;;;;7.00;3.67;;;;;21.89;48.86;101177.03;5073506;28;46249;-66
2022/08/21 07:24:46;;;;;;;;;10.00;4.00;;;;;21.88;48.74;101182.47;5071858;27;45468;-65
2022/08/21 07:27:12;;;;;;;;;6.00;4.33;;;;;21.69;49.06;101143.72;5074498;27;53967;-66
2022/08/21 07:29:38;;;;;;;;;10.00;7.00;;;;;21.54;49.26;101133.94;5071735;28;45745;-68
2022/08/21 07:32:04;;;;;;;;;4.67;4.00;;;;;21.68;49.06;101155.56;5075658;27;45602;-66
2022/08/21 07:34:30;;;;;;;;;5.00;5.00;;;;;21.88;48.86;101158.88;5074474;27;45676;-65
2022/08/21 07:36:56;;;;;;;;;5.00;3.00;;;;;21.75;48.26;101121.91;5074984;28;45485;-66
2022/08/21 07:39:21;;;;;;;;;5.33;5.00;;;;;22.19;48.11;101173.84;5071562;27;45494;-65
2022/08/21 07:41:46;;;;;;;;;7.00;5.67;;;;;22.33;47.81;101168.25;5074090;28;45394;-66
2022/08/21 07:44:11;;;;;;;;;8.33;4.00;;;;;22.34;47.45;101159.13;5072964;27;54541;-66
2022/08/21 07:46:37;;;;;;;;;7.33;4.00;;;;;22.46;47.35;101164.41;5072293;28;51372;-66
2022/08/21 07:49:02;;;;;;;;;4.00;4.00;;;;;22.55;47.37;101168.78;5074213;27;45369;-64
2022/08/21 07:51:28;;;;;;;;;4.33;3.00;;;;;22.69;47.35;101166.75;5073886;27;45844;-65
2022/08/21 07:53:56;;;;;;;;;3.33;3.33;;;;;22.74;46.37;101173.00;5074637;28;45838;-65
2022/08/21 07:56:22;;;;;;;;;3.33;2.33;;;;;22.83;45.73;101169.22;5069437;28;45487;-66
2022/08/21 07:58:47;;;;;;;;;6.33;3.67;;;;;22.62;45.42;101127.81;5074539;27;45607;-66
2022/08/21 08:01:13;;;;;;;;;6.00;4.33;;;;;22.54;45.58;101091.66;5076845;27;45462;-65
2022/08/21 08:03:39;;;;;;;;;5.67;4.33;;;;;22.97;45.69;101169.00;5075838;27;45441;-65
2022/08/21 08:06:08;;;;;;;;;2.33;2.33;;;;;23.05;45.26;101157.91;5075910;28;45321;-65
2022/08/21 08:08:33;;;;;;;;;4.67;4.33;;;;;23.17;45.35;101164.06;5070066;27;45545;-66
2022/08/21 08:11:00;;;;;;;;;4.67;4.00;;;;;23.06;45.11;101135.19;5073489;27;46048;-65
2022/08/21 08:13:25;;;;;;;;;7.00;6.00;;;;;23.30;45.05;101155.69;5073940;28;45849;-66
2022/08/21 08:15:51;;;;;;;;;3.00;3.00;;;;;23.32;44.79;101129.28;5074213;27;45771;-66
2022/08/21 08:18:16;;;;;;;;;3.33;3.33;;;;;23.64;44.63;101152.22;5074252;28;45416;-65
2022/08/21 08:20:42;;;;;;;;;6.33;5.00;;;;;23.65;44.18;101127.66;5071317;28;46222;-65
2022/08/21 08:23:10;;;;;;;;;3.33;3.33;;;;;23.87;43.56;101158.13;5074025;28;45443;-66
2022/08/21 08:25:36;;;;;;;;;6.00;3.00;;;;;23.83;43.92;101134.56;5068683;28;45472;-65
2022/08/21 08:28:01;;;;;;;;;6.00;5.00;;;;;24.03;43.92;101146.88;5073248;27;45592;-69
2022/08/21 08:30:26;;;;;;;;;5.00;5.00;;;;;23.74;43.27;101086.53;5073887;28;46105;-65
2022/08/21 08:32:52;;;;;;;;;3.67;3.00;;;;;24.14;43.27;101143.88;5073678;27;45429;-65
2022/08/21 08:35:18;;;;;;;;;4.00;2.67;;;;;24.24;42.78;101154.53;5076333;28;45357;-65
2022/08/21 08:37:45;;;;;;;;;5.67;4.00;;;;;24.28;42.62;101142.59;5073780;27;45418;-65
2022/08/21 08:40:35;;;;;;;;;8.00;3.67;;;;;24.36;42.74;101142.41;5073781;27;47975;-65
2022/08/21 08:43:01;;;;;;;;;5.67;5.00;;;;;24.31;42.04;101125.25;5072704;28;45424;-66
2022/08/21 08:45:30;;;;;;;;;5.67;3.00;;;;;24.49;41.68;101145.75;5072941;28;45359;-65
2022/08/21 08:48:07;;;;;;;;;6.33;4.00;;;;;24.28;41.77;101109.84;5074076;28;45745;-65
2022/08/21 08:50:56;;;;;;;;;6.33;4.33;;;;;24.48;41.45;101146.69;5067676;28;46393;-66
2022/08/21 08:53:25;;;;;;;;;2.00;2.00;;;;;24.51;41.51;101143.88;5073474;28;45468;-65
2022/08/21 08:55:52;;;;;;;;;7.33;3.67;;;;;24.50;41.03;101135.72;5073777;28;46232;-65
2022/08/21 08:58:24;;;;;;;;;3.33;3.33;;;;;24.62;40.76;101133.59;5074029;28;45436;-65
2022/08/21 09:00:51;;;;;;;;;10.33;3.33;;;;;24.70;41.68;101138.88;5073528;27;45550;-63
2022/08/21 09:03:18;;;;;;;;;5.00;5.00;;;;;24.85;41.54;101140.31;5070306;27;45480;-64
2022/08/21 09:06:01;;;;;;;;;3.00;2.33;;;;;24.91;41.29;101131.03;5073126;28;45647;-62
2022/08/21 09:08:52;;;;;;;;;7.00;4.00;;;;;24.82;40.92;101124.88;5072173;28;45542;-64
2022/08/21 09:11:41;;;;;;;;;3.00;3.00;;;;;24.59;41.43;101087.25;5070285;28;45842;-65
2022/08/21 09:14:34;;;;;;;;;6.67;2.67;;;;;24.71;41.20;101116.06;5073350;27;45449;-66
2022/08/21 09:17:30;;;;;;;;;4.67;4.00;;;;;24.51;41.62;101107.47;5068329;28;45377;-70
2022/08/21 09:20:18;;;;;;;;;3.00;3.00;;;;;24.63;41.67;101113.56;5073149;27;45493;-62
2022/08/21 09:22:58;;;;;;;;;4.00;4.00;;;;;24.70;41.77;101116.09;5069846;27;46212;-64
2022/08/21 09:25:32;;;;;;;;;4.33;4.00;;;;;24.74;40.77;101099.59;5073441;28;45530;-64
2022/08/21 09:27:58;;;;;;;;;3.33;3.33;;;;;24.96;40.84;101107.19;5076784;27;45405;-66
2022/08/21 09:30:30;;;;;;;;;6.00;6.00;;;;;25.11;41.28;101105.88;5076941;27;45710;-66
2022/08/21 09:32:56;;;;;;;;;6.33;5.33;;;;;25.18;41.63;101102.03;5075548;28;46163;-66
2022/08/21 09:35:23;;;;;;;;;3.67;3.00;;;;;25.25;40.43;101108.22;5075676;27;45488;-66
2022/08/21 09:37:58;;;;;;;;;3.00;3.00;;;;;25.23;40.35;101107.34;5079512;27;45401;-65
2022/08/21 09:40:35;;;;;;;;;2.67;2.67;;;;;25.16;39.43;101107.56;5076533;27;45393;-67
2022/08/21 09:43:17;;;;;;;;;3.67;3.00;;;;;25.07;39.43;101107.81;5076097;28;45976;-66
2022/08/21 09:45:44;;;;;;;;;5.00;3.00;;;;;24.96;39.10;101115.41;5071668;27;45416;-65
2022/08/21 09:48:24;;;;;;;;;4.00;4.00;;;;;24.99;39.79;101118.94;5075793;27;45353;-66
2022/08/21 09:50:51;;;;;;;;;3.00;3.00;;;;;25.04;39.67;101110.63;5081843;27;45399;-64
2022/08/21 09:53:25;;;;;;;;;2.00;2.00;;;;;25.18;39.42;101118.44;5072110;28;45595;-64
2022/08/21 09:58:45;;;;;;;;;6.33;5.00;;;;;25.44;39.06;101098.59;5072732;28;45545;-64
2022/08/21 10:01:24;;;;;;;;;4.00;4.00;;;;;25.44;38.81;101097.66;5073828;28;45291;-65
2022/08/21 10:04:03;;;;;;;;;3.67;3.67;;;;;25.60;38.57;101095.38;5070898;28;45408;-65
2022/08/21 10:06:29;;;;;;;;;4.33;4.00;;;;;25.70;37.99;101089.53;5075653;27;45603;-64
2022/08/21 10:09:10;;;;;;;;;5.67;3.00;;;;;25.84;38.36;101078.19;5075868;28;45435;-65
2022/08/21 10:11:35;;;;;;;;;5.33;3.00;;;;;25.92;37.37;101073.34;5076090;27;45528;-64
2022/08/21 10:14:17;;;;;;;;;2.33;2.33;;;;;25.99;37.02;101078.69;5075606;27;45511;-64
2022/08/21 10:16:56;;;;;;;;;5.00;3.67;;;;;26.00;37.10;101070.38;5074364;27;45674;-64
2022/08/21 10:19:36;;;;;;;;;2.67;2.67;;;;;25.99;36.38;101068.63;5070203;28;45346;-63
2022/08/21 10:22:13;;;;;;;;;3.33;2.67;;;;;25.92;36.86;101067.88;5071886;28;45712;-64
2022/08/21 10:24:57;;;;;;;;;4.67;3.00;;;;;25.79;37.25;101061.00;5075368;28;46179;-66
2022/08/21 10:27:33;;;;;;;;;5.00;4.00;;;;;25.70;37.53;101061.28;5074729;27;45453;-64
2022/08/21 10:30:06;;;;;;;;;4.67;4.00;;;;;25.58;38.00;101061.69;5075329;28;45503;-64
2022/08/21 10:32:44;;;;;;;;;6.00;5.33;;;;;25.64;38.36;101045.06;5075470;27;45464;-64
2022/08/21 10:35:14;;;;;;;;;4.67;4.33;;;;;25.72;38.42;101051.19;5075352;27;46537;-67
2022/08/21 10:38:03;;;;;;;;;3.33;3.33;;;;;25.59;38.50;101023.34;5071314;28;45441;-68
2022/08/21 10:40:38;;;;;;;;;4.00;4.00;;;;;25.70;38.60;101042.13;5075494;27;45585;-68
2022/08/21 10:43:41;;;;;;;;;3.00;3.00;;;;;25.78;38.03;101042.78;5075402;28;45516;-66
2022/08/21 10:46:22;;;;;;;;;3.00;3.00;;;;;25.81;37.81;101045.44;5073613;27;46152;-68
2022/08/21 10:49:05;;;;;;;;;3.00;3.00;;;;;25.85;37.93;101036.16;5075320;28;45333;-65
2022/08/21 10:51:48;;;;;;;;;5.00;5.00;;;;;25.82;38.07;101028.06;5070673;28;45286;-63
2022/08/21 10:54:17;;;;;;;;;5.33;1.67;;;;;25.84;37.73;101014.34;5075945;27;45440;-67
2022/08/21 10:56:43;;;;;;;;;2.00;2.00;;;;;25.92;37.59;101012.25;5075197;28;46350;-66
2022/08/21 10:59:11;;;;;;;;;4.00;4.00;;;;;26.03;37.20;101015.53;5073513;27;45563;-65
2022/08/21 11:01:49;;;;;;;;;3.67;3.00;;;;;26.20;37.21;101014.06;5074402;27;45377;-64
2022/08/21 11:04:30;;;;;;;;;5.00;4.00;;;;;26.38;36.54;101023.47;5075497;28;45457;-63
2022/08/21 11:07:16;;;;;;;;;8.67;6.67;;;;;26.47;36.72;101023.16;5068372;28;46360;-64
2022/08/21 11:09:47;;;;;;;;;6.67;4.67;;;;;26.54;37.08;101012.88;5073116;28;45447;-64
2022/08/21 11:12:25;;;;;;;;;6.00;5.00;;;;;26.72;36.75;101022.31;5075234;27;45516;-63
2022/08/21 11:14:58;;;;;;;;;2.67;2.00;;;;;26.77;36.30;101018.44;5072900;28;46222;-67
2022/08/21 11:17:55;;;;;;;;;9.33;7.00;;;;;26.81;35.98;101030.19;5074622;27;46186;-64
2022/08/21 11:20:30;;;;;;;;;3.33;2.00;;;;;26.71;34.45;101035.09;5069914;28;45433;-64
2022/08/21 11:23:11;;;;;;;;;1.67;1.67;;;;;26.69;34.55;101031.53;5074809;28;45684;-67
2022/08/21 11:25:43;;;;;;;;;1.33;1.33;;;;;26.58;34.05;101044.69;5074848;28;45559;-67
2022/08/21 11:28:27;;;;;;;;;2.00;1.00;;;;;26.47;34.48;101039.59;5074751;27;46397;-67
2022/08/21 11:31:02;;;;;;;;;3.00;2.00;;;;;26.50;34.97;101044.97;5068464;27;45682;-64
2022/08/21 11:34:04;;;;;;;;;4.00;2.00;;;;;26.54;35.34;101032.94;5074002;28;45457;-69
2022/08/21 11:36:40;;;;;;;;;5.33;2.67;;;;;26.63;35.36;101043.63;5074603;28;45508;-65